Time;durP1;ratioP1;P1;durP2;ratioP2;P2;SDS_P1;SDS_P2;PMS_P1;PMS_P2;Temp;Humidity;BMP_temperature;BMP_pressure;BME280_temperature;BME280_humidity;BME280_pressure;Samples;Min_cycle;Max_cycle;Signal;HPM_P1;HPM_P2
2022/04/22 00:02:22;;;;;;;5.30;3.95;;;;;;;13.39;85.92;99981.16;5071030;28;20279;-76
2022/04/22 00:04:49;;;;;;;3.85;3.60;;;;;;;12.79;87.96;99901.16;5070912;28;20195;-76
2022/04/22 00:07:16;;;;;;;4.22;3.80;;;;;;;13.10;89.83;99978.50;5070762;28;20198;-75
2022/04/22 00:09:43;;;;;;;4.90;4.28;;;;;;;12.98;92.57;99973.22;5070576;28;20207;-76
2022/04/22 00:12:11;;;;;;;3.83;3.53;;;;;;;12.59;96.22;99934.88;5035626;28;20227;-76
2022/04/22 00:14:38;;;;;;;3.47;3.28;;;;;;;12.77;97.17;99971.38;5018944;28;20670;-77
2022/04/22 00:17:06;;;;;;;3.88;3.42;;;;;;;12.87;97.93;99972.31;5071110;28;20209;-77
2022/04/22 00:19:33;;;;;;;4.10;3.80;;;;;;;13.04;96.51;99973.25;5069872;28;20199;-75
2022/04/22 00:22:00;;;;;;;7.32;4.60;;;;;;;13.13;94.45;99983.69;5070735;28;20625;-75
2022/04/22 00:24:26;;;;;;;7.47;3.83;;;;;;;13.21;94.18;99978.53;5070553;28;20256;-77
2022/04/22 00:26:53;;;;;;;5.32;4.18;;;;;;;13.19;94.47;99973.31;5070214;28;20635;-76
2022/04/22 00:29:20;;;;;;;6.15;4.45;;;;;;;13.31;93.22;99980.28;5069840;28;20195;-75
2022/04/22 00:31:47;;;;;;;5.63;4.05;;;;;;;13.38;93.35;99962.06;5070301;28;20230;-76
2022/04/22 00:34:15;;;;;;;7.55;4.47;;;;;;;13.51;93.87;99973.38;5070319;28;20229;-75
2022/04/22 00:36:42;;;;;;;4.30;3.90;;;;;;;13.45;92.11;99962.09;5018850;28;20199;-76
2022/04/22 00:39:09;;;;;;;5.00;4.10;;;;;;;13.54;90.91;99962.97;5070546;28;20198;-76
2022/04/22 00:41:36;;;;;;;5.15;4.05;;;;;;;13.48;93.16;99936.06;5034592;28;20211;-76
2022/04/22 00:44:02;;;;;;;6.38;4.88;;;;;;;13.48;95.96;99962.09;5070769;28;20203;-76
2022/04/22 00:46:29;;;;;;;4.00;3.70;;;;;;;13.48;91.77;99970.78;5070086;28;20257;-76
2022/04/22 00:48:56;;;;;;;6.63;4.22;;;;;;;13.64;91.59;99971.66;5070293;28;20301;-76
2022/04/22 00:51:24;;;;;;;15.82;6.97;;;;;;;13.61;91.48;99943.88;5070404;28;20194;-76
2022/04/22 00:53:54;;;;;;;18.67;7.03;;;;;;;13.77;92.71;99961.22;5051841;28;20207;-76
2022/04/22 00:56:21;;;;;;;6.30;5.10;;;;;;;13.75;93.33;99960.38;5018875;28;20195;-76
2022/04/22 00:58:50;;;;;;;7.15;4.55;;;;;;;13.57;93.64;99933.44;5070338;28;20210;-76
2022/04/22 01:01:17;;;;;;;4.82;4.40;;;;;;;13.72;93.38;99957.78;5055881;28;20233;-76
2022/04/22 01:09:47;;;;;;;5.43;4.10;;;;;;;13.71;93.42;99955.16;5070591;28;20207;-77
2022/04/22 01:12:06;;;;;;;4.55;3.63;;;;;;;13.71;95.68;99949.94;5068702;28;20369;-76
2022/04/22 01:14:33;;;;;;;4.90;4.22;;;;;;;13.75;95.85;99946.47;5018844;28;20207;-78
2022/04/22 01:17:00;;;;;;;4.65;4.25;;;;;;;13.53;96.32;99924.75;5034457;28;20195;-76
2022/04/22 01:19:27;;;;;;;6.35;4.10;;;;;;;13.59;96.62;99942.13;5069941;28;20229;-76
2022/04/22 01:21:56;;;;;;;4.72;4.32;;;;;;;13.67;96.76;99948.19;5017665;28;20623;-76
2022/04/22 01:24:23;;;;;;;4.82;4.30;;;;;;;13.64;97.18;99940.38;5069947;28;20765;-77
2022/04/22 01:26:50;;;;;;;5.65;4.45;;;;;;;13.65;99.56;99947.34;5070169;28;20222;-77
2022/04/22 01:29:17;;;;;;;4.63;3.95;;;;;;;13.62;100.00;99943.00;5070290;28;20210;-77
2022/04/22 01:31:44;;;;;;;4.40;4.10;;;;;;;13.45;97.28;99936.91;5034121;28;20226;-76
2022/04/22 01:34:11;;;;;;;6.40;4.45;;;;;;;13.48;96.67;99938.66;5070056;28;20313;-76
2022/04/22 01:36:38;;;;;;;4.63;4.22;;;;;;;13.08;97.01;99867.41;5069958;28;20282;-76
2022/04/22 01:39:06;;;;;;;4.43;4.03;;;;;;;13.59;96.89;99942.97;5069550;28;20597;-76
2022/04/22 01:41:33;;;;;;;4.45;4.10;;;;;;;13.53;96.84;99924.75;5070051;28;20195;-76
2022/04/22 01:43:59;;;;;;;6.28;4.22;;;;;;;13.55;95.45;99932.59;5069748;28;20213;-76
2022/04/22 01:46:26;;;;;;;5.47;4.43;;;;;;;13.62;96.66;99944.75;5069691;28;20207;-76
2022/04/22 01:48:53;;;;;;;4.90;4.15;;;;;;;13.67;97.28;99943.00;5070137;28;20256;-74
2022/04/22 01:51:20;;;;;;;4.68;4.28;;;;;;;13.56;95.93;99910.84;5059902;28;20208;-76
2022/04/22 01:53:47;;;;;;;4.63;4.32;;;;;;;13.72;95.26;99931.72;5049757;28;20651;-76
2022/04/22 01:56:15;;;;;;;5.65;4.22;;;;;;;13.76;97.64;99932.59;5057883;28;20274;-76
2022/04/22 01:58:42;;;;;;;11.02;4.80;;;;;;;13.57;98.07;99910.00;5071815;28;20195;-76
2022/04/22 02:01:08;;;;;;;6.03;4.47;;;;;;;13.69;95.95;99931.72;5072866;28;20758;-76
2022/04/22 02:03:36;;;;;;;6.28;4.88;;;;;;;13.57;97.25;99921.28;5073070;28;20209;-76
2022/04/22 02:06:04;;;;;;;4.88;4.38;;;;;;;13.66;95.33;99904.81;5073697;28;20203;-76
2022/04/22 02:08:31;;;;;;;4.82;4.43;;;;;;;13.80;95.23;99913.47;5072564;28;20203;-76
2022/04/22 02:10:59;;;;;;;5.05;4.35;;;;;;;13.75;97.42;99915.19;5073489;28;20635;-76
2022/04/22 02:13:27;;;;;;;4.60;4.20;;;;;;;13.43;100.00;99890.88;5072932;28;20215;-75
2022/04/22 02:15:54;;;;;;;6.00;4.78;;;;;;;13.43;100.00;99888.28;5072650;28;20198;-77
2022/04/22 02:18:20;;;;;;;6.93;4.88;;;;;;;13.51;100.00;99882.22;5072906;28;20264;-77
2022/04/22 02:20:47;;;;;;;6.35;4.70;;;;;;;13.55;100.00;99894.38;5072721;28;20256;-77
2022/04/22 02:23:14;;;;;;;8.50;5.60;;;;;;;13.38;100.00;99873.53;5072931;28;20210;-77
2022/04/22 02:25:41;;;;;;;8.23;5.43;;;;;;;13.16;100.00;99868.31;5072796;28;20214;-77
2022/04/22 02:30:53;;;;;;;5.65;4.38;;;;;;;13.56;100.00;99892.63;5072646;28;20627;-77
2022/04/22 02:33:20;;;;;;;5.75;4.93;;;;;;;13.55;100.00;99883.09;5029461;28;20219;-77
2022/04/22 02:35:46;;;;;;;5.78;5.28;;;;;;;13.50;100.00;99887.41;5064058;28;20276;-77
2022/04/22 02:38:13;;;;;;;5.25;4.72;;;;;;;13.46;100.00;99883.06;5072710;28;20210;-75
2022/04/22 02:46:10;;;;;;;5.18;4.68;;;;;;;13.66;100.00;99878.75;5072633;28;20582;-77
2022/04/22 02:48:36;;;;;;;5.30;4.80;;;;;;;13.69;100.00;99889.16;5072707;28;20210;-76
2022/04/22 02:51:03;;;;;;;6.10;4.68;;;;;;;13.72;100.00;99887.41;5073039;28;20199;-76
2022/04/22 02:53:30;;;;;;;4.57;4.20;;;;;;;13.56;100.00;99871.78;5072112;28;20311;-76
2022/04/22 02:55:58;;;;;;;4.93;4.43;;;;;;;13.73;100.00;99888.28;5072391;28;20209;-76
2022/04/22 02:58:25;;;;;;;5.32;4.75;;;;;;;13.76;100.00;99883.06;5072344;28;20219;-76
2022/04/22 03:00:52;;;;;;;5.85;5.35;;;;;;;13.71;100.00;99872.66;5071569;28;20210;-77
2022/04/22 03:03:20;;;;;;;4.93;4.57;;;;;;;13.77;100.00;99887.38;5072234;28;20207;-75
2022/04/22 03:05:47;;;;;;;4.70;4.30;;;;;;;13.55;100.00;99890.91;5072178;28;20202;-75
2022/04/22 03:08:14;;;;;;;4.68;4.00;;;;;;;13.59;100.00;99888.28;5071724;28;20203;-75
2022/04/22 03:10:41;;;;;;;5.40;4.47;;;;;;;13.49;100.00;99881.34;5071998;28;20219;-76
2022/04/22 03:13:08;;;;;;;4.32;3.92;;;;;;;13.55;100.00;99885.69;5036081;28;20223;-76
2022/04/22 03:15:38;;;;;;;4.05;3.70;;;;;;;13.60;100.00;99896.97;5072441;28;20203;-76
2022/04/22 03:18:05;;;;;;;4.55;3.63;;;;;;;13.54;100.00;99894.38;5070649;28;20256;-76
2022/04/22 03:20:33;;;;;;;4.05;3.75;;;;;;;13.55;100.00;99885.69;5020349;28;20206;-76
2022/04/22 03:23:00;;;;;;;4.18;3.60;;;;;;;13.50;100.00;99882.22;5071110;28;20199;-76
2022/04/22 03:25:27;;;;;;;3.83;3.53;;;;;;;13.55;100.00;99880.47;5071374;28;20202;-76
2022/04/22 03:27:54;;;;;;;4.25;3.85;;;;;;;13.40;100.00;99864.00;5071618;28;20855;-76
2022/04/22 03:30:20;;;;;;;4.47;4.07;;;;;;;13.54;100.00;99889.16;5071188;28;20651;-76
2022/04/22 03:32:47;;;;;;;5.88;4.95;;;;;;;13.68;100.00;99884.81;5071476;28;20214;-76
2022/04/22 03:35:14;;;;;;;5.30;4.40;;;;;;;13.47;100.00;99858.78;5071631;28;20253;-76
2022/04/22 03:37:42;;;;;;;8.70;6.30;;;;;;;13.65;100.00;99866.59;5071347;28;20211;-75
2022/04/22 03:40:11;;;;;;;6.30;5.28;;;;;;;13.79;100.00;99872.63;5071473;28;20549;-76
2022/04/22 03:42:37;;;;;;;10.77;5.20;;;;;;;13.81;100.00;99856.13;5035829;28;20293;-76
2022/04/22 03:45:05;;;;;;;5.93;4.85;;;;;;;13.89;100.00;99869.16;5053028;28;20203;-76
2022/04/22 03:47:32;;;;;;;5.53;4.85;;;;;;;13.95;100.00;99865.69;5071182;28;20229;-76
2022/04/22 03:49:59;;;;;;;6.07;5.05;;;;;;;14.00;100.00;99863.91;5070584;28;20195;-76
2022/04/22 03:52:25;;;;;;;6.03;5.35;;;;;;;14.03;100.00;99858.69;5071132;28;20210;-76
2022/04/22 03:54:54;;;;;;;8.80;5.22;;;;;;;14.07;100.00;99861.28;5070268;28;20244;-76
2022/04/22 04:00:05;;;;;;;7.35;5.80;;;;;;;13.92;100.00;99850.88;5070677;28;20344;-76
2022/04/22 04:02:33;;;;;;;4.78;4.20;;;;;;;13.58;100.00;99844.00;5034708;28;20665;-76
2022/04/22 04:05:00;;;;;;;7.38;5.05;;;;;;;13.59;100.00;99846.59;5070655;28;20225;-78
2022/04/22 04:07:27;;;;;;;9.60;5.57;;;;;;;13.35;100.00;99816.22;5070927;28;20195;-78
2022/04/22 04:18:06;;;;;;;11.07;6.03;;;;;;;13.08;100.00;99837.03;4994132;28;20635;-78
2022/04/22 04:23:18;;;;;;;14.93;6.95;;;;;;;13.23;100.00;99851.84;5007734;28;20264;-78
2022/04/22 04:25:48;;;;;;;8.85;5.25;;;;;;;13.27;100.00;99853.56;5007741;28;20228;-77
2022/04/22 04:28:16;;;;;;;6.47;5.35;;;;;;;13.31;100.00;99870.91;5007805;28;20391;-77
2022/04/22 04:30:44;;;;;;;8.85;5.30;;;;;;;13.62;100.00;99866.59;5008906;28;20308;-77
2022/04/22 04:33:11;;;;;;;10.57;5.65;;;;;;;13.44;100.00;99874.41;5008347;28;20658;-78
2022/04/22 04:35:40;;;;;;;11.25;5.70;;;;;;;13.44;100.00;99869.19;4991625;28;20287;-79
2022/04/22 04:38:07;;;;;;;11.25;5.93;;;;;;;13.26;100.00;99873.53;4988993;28;20251;-77
2022/04/22 04:40:35;;;;;;;9.15;5.75;;;;;;;13.21;100.00;99866.56;4988719;28;20672;-79
2022/04/22 04:43:05;;;;;;;9.30;5.45;;;;;;;13.17;100.00;99860.50;4989034;28;20288;-77
2022/04/22 04:45:32;;;;;;;9.55;5.03;;;;;;;13.02;100.00;99857.00;4988734;28;20194;-77
2022/04/22 04:47:59;;;;;;;8.90;5.07;;;;;;;12.98;100.00;99856.13;4988424;28;20190;-79
2022/04/22 04:50:26;;;;;;;4.57;4.07;;;;;;;13.00;100.00;99864.78;4989102;28;20204;-77
2022/04/22 04:52:53;;;;;;;16.70;6.38;;;;;;;13.06;100.00;99856.97;5014358;28;20224;-78
2022/04/22 04:55:20;;;;;;;10.60;5.60;;;;;;;13.05;100.00;99844.84;5030649;28;20215;-80
2022/04/22 04:57:48;;;;;;;11.80;7.13;;;;;;;13.24;100.00;99854.41;5030483;28;20239;-78
2022/04/22 05:00:18;;;;;;;6.30;5.10;;;;;;;13.12;100.00;99853.56;5029403;28;20617;-82
2022/04/22 05:02:45;;;;;;;7.13;5.15;;;;;;;13.04;100.00;99852.63;5016587;28;20201;-82
2022/04/22 05:05:13;;;;;;;5.90;4.75;;;;;;;12.78;100.00;99826.56;5030769;28;20199;-81
2022/04/22 05:07:50;;;;;;;6.38;5.18;;;;;;;12.33;100.00;99759.72;5030828;28;20228;-80
2022/04/22 05:10:19;;;;;;;18.42;11.52;;;;;;;12.76;100.00;99825.72;5030336;28;20204;-81
2022/04/22 05:12:46;;;;;;;9.18;5.22;;;;;;;12.58;100.00;99815.25;5030294;28;20319;-80
2022/04/22 05:15:13;;;;;;;5.45;4.95;;;;;;;12.65;100.00;99853.44;5029873;28;20342;-80
2022/04/22 05:17:43;;;;;;;5.72;5.13;;;;;;;12.74;100.00;99843.03;5030044;28;20270;-78
2022/04/22 05:20:11;;;;;;;5.32;4.82;;;;;;;12.81;100.00;99873.41;5030650;28;20266;-80
2022/04/22 05:22:39;;;;;;;6.05;4.55;;;;;;;12.60;100.00;99873.34;4996525;28;20619;-81
2022/04/22 05:25:08;;;;;;;7.70;5.60;;;;;;;12.75;100.00;99889.88;5031043;28;20254;-82
2022/04/22 05:27:35;;;;;;;4.15;3.78;;;;;;;12.74;100.00;99898.53;5031108;28;20223;-83
2022/04/22 05:32:48;;;;;;;5.85;4.00;;;;;;;12.86;100.00;99928.94;5033527;28;20301;-83
2022/04/22 05:35:16;;;;;;;6.18;4.60;;;;;;;12.79;100.00;99921.97;5062333;28;20319;-81
2022/04/22 05:37:47;;;;;;;5.97;4.60;;;;;;;12.76;100.00;99906.34;5079914;28;20682;-80
2022/04/22 05:40:17;;;;;;;5.53;4.95;;;;;;;13.00;100.00;99931.56;5074349;28;20210;-80
2022/04/22 05:42:44;;;;;;;6.72;5.10;;;;;;;12.87;100.00;99921.16;5075144;28;20199;-86
2022/04/22 05:45:12;;;;;;;6.43;4.75;;;;;;;13.10;100.00;99942.03;5083457;28;20202;-86
2022/04/22 05:47:39;;;;;;;4.90;4.50;;;;;;;12.96;100.00;99917.69;5096790;28;20198;-82
2022/04/22 05:50:10;;;;;;;9.85;4.97;;;;;;;13.13;100.00;99952.47;5076908;28;20214;-83
2022/04/22 05:52:38;;;;;;;6.32;4.40;;;;;;;13.01;100.00;99951.53;5081380;28;20600;-80
2022/04/22 05:55:09;;;;;;;7.95;6.72;;;;;;;13.25;100.00;99939.47;5093912;28;20617;-80
2022/04/22 05:57:36;;;;;;;7.35;5.00;;;;;;;13.06;100.00;99932.44;5090567;28;20194;-80
2022/04/22 06:00:07;;;;;;;7.97;5.38;;;;;;;13.21;100.00;99937.72;5073830;28;20289;-79
2022/04/22 06:02:33;;;;;;;12.35;7.88;;;;;;;13.47;100.00;99957.75;5074725;28;20207;-79
2022/04/22 06:05:01;;;;;;;15.98;10.70;;;;;;;13.42;100.00;99960.34;5074049;28;20203;-83
2022/04/22 06:07:29;;;;;;;18.92;12.65;;;;;;;13.46;100.00;99942.97;5073622;28;20195;-81
2022/04/22 06:12:40;;;;;;;15.63;11.48;;;;;;;13.46;100.00;99937.75;5073770;28;20277;-82
2022/04/22 06:15:07;;;;;;;15.35;11.07;;;;;;;13.54;100.00;99960.34;5073991;28;20230;-83
2022/04/22 06:17:34;;;;;;;14.02;8.95;;;;;;;13.57;100.00;99957.75;5073517;28;20655;-79
2022/04/22 06:20:01;;;;;;;11.95;8.35;;;;;;;13.43;100.00;99953.41;5073656;28;20198;-81
2022/04/22 06:22:30;;;;;;;12.90;10.10;;;;;;;13.35;100.00;99920.41;5074619;28;20202;-83
2022/04/22 06:24:57;;;;;;;14.60;10.48;;;;;;;13.52;100.00;99935.19;5073827;28;20210;-83
2022/04/22 06:27:24;;;;;;;16.30;9.55;;;;;;;13.68;100.00;99949.94;5091054;28;20209;-80
2022/04/22 06:29:52;;;;;;;23.27;11.32;;;;;;;13.94;100.00;99949.94;5093475;28;20711;-79
2022/04/22 06:32:20;;;;;;;12.85;9.20;;;;;;;13.90;100.00;99952.56;5093481;28;20282;-78
2022/04/22 06:34:48;;;;;;;14.65;10.60;;;;;;;13.93;100.00;99950.81;5092806;28;20242;-79
2022/04/22 06:37:15;;;;;;;15.43;11.13;;;;;;;14.13;100.00;99943.81;5093466;28;20202;-77
2022/04/22 06:47:59;;;;;;;14.18;9.95;;;;;;;14.32;100.00;99909.88;5049160;28;20693;-78
2022/04/22 06:50:26;;;;;;;15.48;9.45;;;;;;;14.28;100.00;99915.97;5092867;28;20198;-80
2022/04/22 06:52:53;;;;;;;22.60;13.43;;;;;;;14.14;100.00;99911.66;5092910;28;20670;-78
2022/04/22 06:55:22;;;;;;;22.02;13.85;;;;;;;14.49;100.00;99916.81;5040950;28;20226;-79
2022/04/22 06:57:50;;;;;;;20.30;13.25;;;;;;;14.53;100.00;99918.53;5092993;28;20201;-78
2022/04/22 07:00:18;;;;;;;12.98;9.38;;;;;;;14.49;100.00;99916.81;5040133;28;20320;-78
2022/04/22 07:02:45;;;;;;;8.73;7.38;;;;;;;14.05;100.00;99909.09;5092665;28;20199;-80
2022/04/22 07:05:12;;;;;;;8.40;7.07;;;;;;;14.17;100.00;99863.00;5040151;28;20285;-86
2022/04/22 07:07:39;;;;;;;8.70;6.30;;;;;;;14.51;100.00;99886.38;5092881;28;20190;-77
2022/04/22 07:10:07;;;;;;;6.93;5.72;;;;;;;14.74;100.00;99880.19;5092639;28;20194;-82
2022/04/22 07:12:35;;;;;;;8.68;6.32;;;;;;;14.58;100.00;99872.44;5056824;28;20209;-77
2022/04/22 07:15:04;;;;;;;7.07;5.30;;;;;;;14.65;100.00;99874.16;5092413;28;20338;-78
2022/04/22 07:17:33;;;;;;;5.93;4.65;;;;;;;14.42;100.00;99858.59;5092352;28;20238;-80
2022/04/22 07:20:01;;;;;;;6.82;4.95;;;;;;;14.55;100.00;99851.59;5092658;28;20342;-84
2022/04/22 07:22:28;;;;;;;7.05;4.65;;;;;;;14.87;100.00;99839.22;5073744;28;20237;-81
2022/04/22 07:24:55;;;;;;;5.20;4.70;;;;;;;14.79;100.00;99833.19;5092128;28;20559;-82
2022/04/22 07:27:26;;;;;;;5.28;4.78;;;;;;;14.43;100.00;99820.31;5092352;28;20206;-78
2022/04/22 07:29:57;;;;;;;7.05;6.00;;;;;;;14.81;100.00;99821.84;5092509;28;20296;-80
2022/04/22 07:32:24;;;;;;;8.48;4.78;;;;;;;14.46;100.00;99799.44;5092468;28;20203;-79
2022/04/22 07:34:51;;;;;;;10.60;5.40;;;;;;;14.26;100.00;99782.13;5055885;28;20668;-80
2022/04/22 07:37:19;;;;;;;5.25;4.82;;;;;;;14.73;100.00;99809.75;5088586;28;20240;-76
2022/04/22 07:39:46;;;;;;;5.50;3.90;;;;;;;14.47;100.00;99798.56;5026154;28;20207;-77
2022/04/22 07:42:17;;;;;;;9.80;6.13;;;;;;;14.97;100.00;99780.84;5089724;28;20190;-76
2022/04/22 07:47:33;;;;;;;6.80;4.45;;;;;;;14.96;100.00;99758.22;5091602;28;20217;-75
2022/04/22 07:50:02;;;;;;;5.30;3.88;;;;;;;15.20;100.00;99754.53;5090573;28;20222;-74
2022/04/22 07:52:29;;;;;;;12.70;4.28;;;;;;;15.12;100.00;99770.28;5068983;28;20199;-75
2022/04/22 07:54:56;;;;;;;6.75;4.32;;;;;;;15.19;100.00;99761.53;5070165;28;20230;-77
2022/04/22 07:57:22;;;;;;;9.20;5.40;;;;;;;15.64;100.00;99761.97;5070754;28;20206;-75
2022/04/22 07:59:49;;;;;;;8.00;6.20;;;;;;;16.01;100.00;99768.53;5071241;28;20209;-77
2022/04/22 08:02:16;;;;;;;9.15;6.32;;;;;;;16.26;100.00;99777.81;5070939;28;20206;-75
2022/04/22 08:04:45;;;;;;;13.20;6.45;;;;;;;16.78;100.00;99750.91;5070875;28;20210;-76
2022/04/22 08:07:12;;;;;;;13.27;7.38;;;;;;;16.32;100.00;99780.34;5034805;28;20674;-76
2022/04/22 08:09:39;;;;;;;10.88;7.80;;;;;;;16.69;100.00;99772.88;5070633;28;20276;-76
2022/04/22 08:12:06;;;;;;;8.57;5.55;;;;;;;16.43;100.00;99792.41;5070333;28;20289;-75
2022/04/22 08:14:33;;;;;;;11.30;6.93;;;;;;;16.55;100.00;99800.09;5070718;28;20583;-76
2022/04/22 08:17:00;;;;;;;10.30;7.18;;;;;;;17.06;100.00;99804.59;5035606;28;20226;-79
2022/04/22 08:19:27;;;;;;;8.63;4.88;;;;;;;17.30;100.00;99804.19;5070662;28;20199;-74
2022/04/22 08:21:56;;;;;;;8.90;4.70;;;;;;;17.20;100.00;99812.22;5070651;28;20199;-75
2022/04/22 08:24:23;;;;;;;11.98;6.00;;;;;;;17.21;100.00;99814.84;5070310;28;20569;-75
2022/04/22 08:26:50;;;;;;;8.07;5.63;;;;;;;17.08;100.00;99794.09;5070953;28;20218;-76
2022/04/22 08:29:17;;;;;;;6.82;5.00;;;;;;;17.42;100.00;99782.16;5070676;28;20198;-74
2022/04/22 08:31:45;;;;;;;7.10;5.22;;;;;;;17.52;100.00;99794.22;5070674;28;20199;-72
2022/04/22 08:34:12;;;;;;;13.48;6.70;;;;;;;17.87;100.00;99787.50;5069719;28;20253;-75
2022/04/22 08:36:39;;;;;;;10.55;4.65;;;;;;;17.13;100.00;99768.69;5070276;28;20199;-75
2022/04/22 08:39:07;;;;;;;8.07;6.10;;;;;;;17.47;100.00;99774.22;5022327;28;20202;-75
2022/04/22 08:41:35;;;;;;;8.45;5.57;;;;;;;17.49;100.00;99772.44;5090911;28;20201;-75
2022/04/22 08:44:02;;;;;;;8.15;5.95;;;;;;;17.51;100.00;99707.75;5071533;28;20640;-76
2022/04/22 08:52:05;;;;;;;6.80;5.20;;;;;;;17.97;100.00;99740.06;5007887;28;20710;-75
2022/04/22 08:54:36;;;;;;;8.57;6.53;;;;;;;18.21;100.00;99739.56;5047319;28;20234;-75
2022/04/22 08:57:04;;;;;;;17.92;6.35;;;;;;;18.51;100.00;99731.94;5014382;28;20195;-76
2022/04/22 08:59:31;;;;;;;8.80;6.35;;;;;;;17.56;100.00;99745.22;5047665;28;20235;-78
2022/04/22 09:01:57;;;;;;;20.40;7.35;;;;;;;17.45;100.00;99734.06;5047964;28;20211;-77
2022/04/22 09:04:26;;;;;;;11.10;6.65;;;;;;;17.23;100.00;99728.31;5047812;28;20245;-78
2022/04/22 09:06:54;;;;;;;7.75;5.50;;;;;;;16.96;100.00;99703.50;5016176;28;20191;-77
2022/04/22 09:09:21;;;;;;;8.05;5.15;;;;;;;17.07;100.00;99722.50;5052032;28;20198;-77
2022/04/22 09:11:49;;;;;;;8.13;4.82;;;;;;;16.78;100.00;99720.38;5052070;28;20203;-76
2022/04/22 09:14:18;;;;;;;7.20;5.47;;;;;;;16.70;100.00;99710.88;5017900;28;20794;-77
2022/04/22 09:16:45;;;;;;;9.65;5.57;;;;;;;17.13;100.00;99711.03;5051901;28;20223;-78
2022/04/22 09:19:12;;;;;;;10.13;5.70;;;;;;;17.06;100.00;99705.06;5051800;28;20211;-76
2022/04/22 09:21:39;;;;;;;10.65;5.85;;;;;;;17.06;100.00;99701.56;5047116;28;20206;-77
2022/04/22 09:24:13;;;;;;;8.57;5.30;;;;;;;16.90;100.00;99690.50;5030888;28;20295;-77
2022/04/22 09:26:40;;;;;;;9.70;5.53;;;;;;;17.08;100.00;99686.69;5031351;28;20615;-82
2022/04/22 09:29:10;;;;;;;12.02;6.72;;;;;;;17.21;100.00;99686.44;5060267;28;20207;-79
2022/04/22 09:31:46;;;;;;;11.07;5.88;;;;;;;17.28;100.00;99711.66;5074651;28;20195;-79
2022/04/22 09:34:13;;;;;;;10.10;6.75;;;;;;;17.48;100.00;99700.78;5074106;28;20621;-71
2022/04/22 09:44:57;;;;;;;7.28;4.78;;;;;;;17.70;100.00;99677.66;5029644;28;20232;-75
2022/04/22 09:47:27;;;;;;;9.30;4.20;;;;;;;17.98;100.00;99673.56;5072917;28;20211;-75
2022/04/22 09:49:55;;;;;;;9.40;4.93;;;;;;;17.99;100.00;99667.44;5084916;28;20249;-78
2022/04/22 09:52:28;;;;;;;3.25;3.05;;;;;;;17.97;100.00;99677.09;5073672;28;20289;-75
2022/04/22 09:55:01;;;;;;;5.40;3.97;;;;;;;18.21;100.00;99676.56;5021207;28;20245;-77
2022/04/22 09:57:29;;;;;;;10.13;3.90;;;;;;;18.28;100.00;99645.78;5073412;28;20256;-77
2022/04/22 09:59:57;;;;;;;10.32;4.20;;;;;;;18.87;100.00;99672.41;5070503;28;20206;-78
2022/04/22 10:02:27;;;;;;;11.35;3.95;;;;;;;19.14;100.00;99682.22;5070379;28;20191;-79
2022/04/22 10:04:55;;;;;;;4.47;3.08;;;;;;;18.92;100.00;99689.78;5070178;28;20207;-75
2022/04/22 10:07:26;;;;;;;5.53;4.90;;;;;;;18.69;100.00;99679.00;5072290;28;20203;-77
2022/04/22 10:09:55;;;;;;;14.45;5.97;;;;;;;18.92;100.00;99667.88;5071585;28;20214;-78
2022/04/22 10:12:24;;;;;;;6.15;4.13;;;;;;;18.55;100.00;99663.53;5072847;28;20234;-70
2022/04/22 10:14:53;;;;;;;6.13;4.57;;;;;;;18.55;100.00;99654.81;5072776;28;20242;-73
2022/04/22 10:17:23;;;;;;;6.97;4.30;;;;;;;19.01;100.00;99675.56;5071327;28;20227;-72
2022/04/22 10:19:50;;;;;;;6.78;4.53;;;;;;;19.38;100.00;99686.81;5071013;28;20207;-74
2022/04/22 10:22:18;;;;;;;5.30;3.58;;;;;;;19.38;100.00;99685.94;5069279;28;20398;-72
2022/04/22 10:24:45;;;;;;;5.70;3.85;;;;;;;18.84;100.00;99618.16;5052938;28;20207;-72
2022/04/22 10:27:13;;;;;;;8.65;3.40;;;;;;;19.49;100.00;99676.91;5070352;28;20244;-73
2022/04/22 10:29:42;;;;;;;13.70;4.40;;;;;;;19.86;100.00;99671.47;5072594;28;20666;-71
2022/04/22 10:32:12;;;;;;;9.25;3.47;;;;;;;19.76;100.00;99668.22;5072796;28;20229;-73
2022/04/22 10:34:41;;;;;;;7.53;4.13;;;;;;;19.50;100.00;99659.34;5072708;28;20253;-72
2022/04/22 10:37:17;;;;;;;4.80;3.08;;;;;;;19.77;100.00;99671.72;5071667;28;20257;-77
2022/04/22 10:39:49;;;;;;;6.38;3.92;;;;;;;19.91;100.00;99645.00;5052449;28;20293;-76
2022/04/22 10:42:16;;;;;;;10.18;3.20;;;;;;;19.84;100.00;99660.09;5072425;28;20202;-72
2022/04/22 10:47:44;;;;;;;5.30;3.03;;;;;;;19.72;100.00;99656.09;5027639;28;20341;-72
2022/04/22 10:50:27;;;;;;;3.00;2.60;;;;;;;19.73;100.00;99626.22;5020491;28;20198;-70
2022/04/22 10:53:03;;;;;;;6.53;3.25;;;;;;;20.03;100.00;99629.72;5068831;28;20217;-71
2022/04/22 10:55:37;;;;;;;8.25;2.83;;;;;;;19.95;100.00;99631.69;5070438;28;20225;-75
2022/04/22 10:58:23;;;;;;;7.30;3.63;;;;;;;20.39;100.00;99642.66;5071311;28;20206;-79
2022/04/22 11:00:52;;;;;;;7.10;3.53;;;;;;;20.39;100.00;99622.47;5070538;28;20202;-73
2022/04/22 11:03:20;;;;;;;11.55;3.65;;;;;;;20.73;100.00;99653.81;5068901;28;20863;-75
2022/04/22 11:05:53;;;;;;;24.90;9.77;;;;;;;20.68;100.00;99632.91;5068417;28;20203;-75
2022/04/22 11:08:29;;;;;;;13.23;6.75;;;;;;;20.59;100.00;99654.28;5071741;28;20229;-74
2022/04/22 11:11:06;;;;;;;9.77;2.83;;;;;;;20.92;100.00;99638.25;5070454;28;20194;-75
2022/04/22 11:13:34;;;;;;;13.80;3.60;;;;;;;21.05;97.84;99624.59;5071952;28;20225;-71
2022/04/22 11:16:06;;;;;;;9.48;3.30;;;;;;;21.38;94.41;99619.06;5071628;28;20741;-72
2022/04/22 11:18:33;;;;;;;10.80;3.70;;;;;;;21.60;90.29;99598.91;5070010;28;20195;-73
2022/04/22 11:21:03;;;;;;;11.43;4.00;;;;;;;21.88;88.50;99618.06;5068730;28;20293;-73
2022/04/22 11:23:38;;;;;;;9.93;3.90;;;;;;;22.21;87.45;99634.41;5019825;28;20238;-73
2022/04/22 11:26:05;;;;;;;12.45;4.00;;;;;;;22.46;84.97;99621.06;5071624;28;20213;-84
2022/04/22 11:28:36;;;;;;;10.10;3.83;;;;;;;22.99;81.46;99634.72;5070746;28;20643;-75
2022/04/22 11:31:07;;;;;;;5.15;2.30;;;;;;;21.89;85.72;99608.34;5070446;28;20253;-74
2022/04/22 11:33:54;;;;;;;6.88;3.05;;;;;;;22.50;82.68;99623.53;5071435;28;20202;-74
2022/04/22 11:36:24;;;;;;;10.27;3.40;;;;;;;22.95;80.71;99614.63;5071329;28;20313;-73
2022/04/22 11:38:52;;;;;;;13.13;3.75;;;;;;;22.90;72.32;99606.88;5071353;28;20207;-76
2022/04/22 11:41:19;;;;;;;7.97;3.30;;;;;;;22.39;68.44;99574.69;5071825;28;20206;-75
2022/04/22 11:43:47;;;;;;;7.38;2.67;;;;;;;23.05;65.33;99593.00;5072113;28;20766;-80
2022/04/22 11:46:16;;;;;;;14.57;3.50;;;;;;;22.51;67.71;99593.53;5072284;28;20210;-77
2022/04/22 11:48:47;;;;;;;7.78;3.03;;;;;;;23.20;68.02;99605.56;5072776;28;20194;-78
2022/04/22 11:51:15;;;;;;;4.57;2.55;;;;;;;22.56;67.12;99595.97;5020078;28;20190;-78
2022/04/22 11:53:51;;;;;;;9.32;2.83;;;;;;;23.17;65.92;99600.41;5076648;28;20281;-80
2022/04/22 11:56:20;;;;;;;12.60;3.60;;;;;;;22.18;67.52;99513.03;5090985;28;20237;-77
2022/04/22 11:58:51;;;;;;;18.13;4.38;;;;;;;22.93;67.87;99590.91;5091363;28;20201;-76
2022/04/22 12:06:46;;;;;;;9.10;2.92;;;;;;;22.35;64.08;99573.09;5050758;28;20214;-78
2022/04/22 12:09:16;;;;;;;6.63;2.95;;;;;;;22.70;61.75;99572.50;5050992;28;20211;-78
2022/04/22 12:11:44;;;;;;;6.85;2.45;;;;;;;21.88;61.76;99570.53;5050853;28;20907;-78
2022/04/22 12:14:11;;;;;;;6.25;3.45;;;;;;;22.05;59.82;99547.00;5050950;28;20203;-78
2022/04/22 12:16:38;;;;;;;9.32;2.55;;;;;;;22.48;57.17;99542.59;5050638;28;20230;-79
2022/04/22 12:19:08;;;;;;;11.82;2.90;;;;;;;22.80;56.77;99541.25;5050990;28;20222;-78
2022/04/22 12:21:35;;;;;;;7.50;3.10;;;;;;;23.00;56.81;99550.03;5050602;28;20286;-79
2022/04/22 12:24:03;;;;;;;7.03;2.83;;;;;;;22.62;59.93;99548.13;5050964;28;20243;-79
2022/04/22 12:26:34;;;;;;;7.38;2.72;;;;;;;22.92;60.93;99519.56;5050540;28;20203;-74
2022/04/22 12:29:10;;;;;;;6.13;2.70;;;;;;;23.04;62.63;99533.13;5015982;28;20203;-75
2022/04/22 12:31:39;;;;;;;7.05;2.65;;;;;;;23.02;64.46;99527.03;5049983;28;20207;-75
2022/04/22 12:34:08;;;;;;;10.02;3.22;;;;;;;23.10;63.31;99487.00;5050323;28;20223;-76
2022/04/22 12:36:37;;;;;;;6.57;3.63;;;;;;;23.04;64.25;99511.09;5050187;28;20969;-75